Terminal Aerodrome Forecast
Issued by NWS Wilmington, OH

Home | Current Version | Previous Version | Text Only | Print | Product List | Glossary On
Versions: 1 2 3 4 5 6 7 8 9 10 11 12 13 14 15 16 17 18 19 20 21 22 23 24 25 26 27 28
000
FTUS41 KILN 240500
TAFCVG
TAF
KCVG 240525Z 2406/2512 00000KT P6SM BKN200
     FM241500 25005KT P6SM FEW050 SCT100
     FM242300 23003KT P6SM SCT035
     FM250900 21006KT P6SM BKN035=

USA.gov is the U.S. government's official web portal to all federal, state and local government web resources and services.